createdAt,value
2019-03-15T00:02:14.772Z,95559.80
2019-03-15T00:04:41.319Z,95552.41
2019-03-15T00:07:07.949Z,95547.63
2019-03-15T00:09:34.382Z,95541.45
2019-03-15T00:12:00.817Z,95557.39
2019-03-15T00:14:27.253Z,95551.13
2019-03-15T00:16:53.685Z,95558.33
2019-03-15T00:19:20.220Z,95554.19
2019-03-15T00:21:46.650Z,95554.16
2019-03-15T00:24:13.186Z,95548.22
2019-03-15T00:26:39.722Z,95547.16
2019-03-15T00:29:06.751Z,95554.03
2019-03-15T00:31:33.306Z,95548.86
2019-03-15T00:33:59.844Z,95531.39
2019-03-15T00:36:27.402Z,95547.45
2019-03-15T00:38:54.125Z,95548.36
2019-03-15T00:41:20.704Z,95565.78
2019-03-15T00:43:49.488Z,95568.20
2019-03-15T00:46:15.901Z,95576.66
2019-03-15T00:48:42.334Z,95571.73
2019-03-15T00:51:08.767Z,95567.77
2019-03-15T00:53:35.303Z,95563.32
2019-03-15T00:56:01.848Z,95554.81
2019-03-15T00:58:28.376Z,95561.27
2019-03-15T01:00:55.016Z,95563.32
2019-03-15T01:03:21.551Z,95559.53
2019-03-15T01:05:50.208Z,95554.95
2019-03-15T01:08:17.890Z,95562.74
2019-03-15T01:10:45.697Z,95570.03
2019-03-15T01:13:13.257Z,95563.23
2019-03-15T01:15:41.446Z,95553.52
2019-03-15T01:18:08.139Z,95560.39
2019-03-15T01:20:34.571Z,95550.47
2019-03-15T01:23:01.006Z,95545.11
2019-03-15T01:25:27.540Z,95555.52
2019-03-15T01:27:54.077Z,95559.59
2019-03-15T01:30:20.818Z,95557.92
2019-03-15T01:32:47.558Z,95539.66
2019-03-15T01:35:14.096Z,95534.66
2019-03-15T01:37:40.531Z,95533.66
2019-03-15T01:40:07.065Z,95542.59
2019-03-15T01:42:33.497Z,95538.91
2019-03-15T01:45:00.647Z,95518.78
2019-03-15T01:47:27.184Z,95516.83
2019-03-15T01:49:53.720Z,95526.71
2019-03-15T01:52:20.255Z,95529.89
2019-03-15T01:54:46.795Z,95533.17
2019-03-15T01:57:13.226Z,95539.28
2019-03-15T01:59:39.658Z,95536.67
2019-03-15T02:02:06.096Z,95539.13
2019-03-15T02:04:32.834Z,95542.08
2019-03-15T02:06:59.369Z,95538.06
2019-03-15T02:09:25.907Z,95533.73
2019-03-15T02:11:52.340Z,95522.09
2019-03-15T02:14:19.080Z,95537.50
2019-03-15T02:16:45.719Z,95538.16
2019-03-15T02:19:12.254Z,95532.99
2019-03-15T02:21:38.689Z,95531.63
2019-03-15T02:24:05.124Z,95527.80
2019-03-15T02:26:31.713Z,95531.03
2019-03-15T02:28:58.423Z,95526.34
2019-03-15T02:31:26.703Z,95539.25
2019-03-15T02:33:53.216Z,95537.46
2019-03-15T02:36:19.749Z,95532.61
2019-03-15T02:38:46.285Z,95536.97
2019-03-15T02:41:12.827Z,95539.20
2019-03-15T02:43:39.253Z,95543.50
2019-03-15T02:46:05.788Z,95544.20
2019-03-15T02:48:32.326Z,95545.45
2019-03-15T02:50:58.760Z,95547.42
2019-03-15T02:53:25.199Z,95550.47
2019-03-15T02:55:51.729Z,95550.72
2019-03-15T02:58:18.157Z,95555.80
2019-03-15T03:00:44.591Z,95559.45
2019-03-15T03:03:11.026Z,95552.47
2019-03-15T03:05:37.665Z,95549.38
2019-03-15T03:08:04.108Z,95552.13
2019-03-15T03:10:30.540Z,95551.67
2019-03-15T03:12:56.969Z,95559.59
2019-03-15T03:15:25.035Z,95548.37
2019-03-15T03:17:51.778Z,95546.22
2019-03-15T03:20:18.314Z,95563.44
2019-03-15T03:22:44.745Z,95569.27
2019-03-15T03:25:11.282Z,95569.17
2019-03-15T03:27:37.716Z,95567.80
2019-03-15T03:30:09.285Z,95566.46
2019-03-15T03:32:35.918Z,95563.61
2019-03-15T03:35:03.892Z,95565.48
2019-03-15T03:37:30.415Z,95567.23
2019-03-15T03:39:56.860Z,95575.47
2019-03-15T03:42:23.281Z,95585.81
2019-03-15T03:44:50.127Z,95585.55
2019-03-15T03:47:16.558Z,95592.81
2019-03-15T03:49:42.990Z,95591.62
2019-03-15T03:52:09.423Z,95594.86
2019-03-15T03:54:35.960Z,95593.88
2019-03-15T03:57:02.904Z,95593.70
2019-03-15T03:59:29.542Z,95591.16
2019-03-15T04:01:55.979Z,95591.47
2019-03-15T04:04:22.410Z,95602.33
2019-03-15T04:06:49.166Z,95615.59
2019-03-15T04:09:15.687Z,95612.13
2019-03-15T04:11:54.891Z,95612.67
2019-03-15T04:14:10.502Z,95603.08
2019-03-15T04:16:37.038Z,95609.12
2019-03-15T04:19:03.473Z,95611.48
2019-03-15T04:21:29.907Z,95618.06
2019-03-15T04:23:56.430Z,95619.24
2019-03-15T04:26:23.384Z,95627.81
2019-03-15T04:28:49.817Z,95640.45
2019-03-15T04:31:16.457Z,95630.28
2019-03-15T04:33:42.994Z,95630.90
2019-03-15T04:36:09.530Z,95636.56
2019-03-15T04:38:35.963Z,95629.25
2019-03-15T04:41:02.498Z,95628.32
2019-03-15T04:43:28.932Z,95633.70
2019-03-15T04:45:55.476Z,95633.59
2019-03-15T04:48:22.003Z,95639.51
2019-03-15T04:50:48.436Z,95643.21
2019-03-15T04:53:14.870Z,95655.34
2019-03-15T04:55:41.404Z,95661.66
2019-03-15T04:58:07.838Z,95666.73
2019-03-15T05:00:34.271Z,95663.43
2019-03-15T05:03:00.763Z,95661.55
2019-03-15T05:05:27.347Z,95654.31
2019-03-15T05:07:53.879Z,95653.30
2019-03-15T05:10:20.312Z,95656.46
2019-03-15T05:12:46.849Z,95656.16
2019-03-15T05:15:13.391Z,95660.56
2019-03-15T05:17:39.820Z,95665.84
2019-03-15T05:20:07.942Z,95672.63
2019-03-15T05:22:34.429Z,95680.30
2019-03-15T05:25:00.962Z,95683.22
2019-03-15T05:27:27.395Z,95689.30
2019-03-15T05:29:54.136Z,95686.14
2019-03-15T05:32:20.676Z,95694.23
2019-03-15T05:34:47.208Z,95695.52
2019-03-15T05:37:13.641Z,95685.45
2019-03-15T05:39:40.076Z,95693.11
2019-03-15T05:42:06.509Z,95691.88
2019-03-15T05:44:33.045Z,95691.77
2019-03-15T05:46:59.477Z,95697.87
2019-03-15T05:49:25.913Z,95691.98
2019-03-15T05:51:52.346Z,95687.83
2019-03-15T05:54:18.831Z,95694.58
2019-03-15T05:56:45.419Z,95690.38
2019-03-15T05:59:11.837Z,95694.88
2019-03-15T06:01:38.285Z,95696.23
2019-03-15T06:04:04.820Z,95692.08
2019-03-15T06:06:31.356Z,95694.47
2019-03-15T06:08:57.898Z,95703.51
2019-03-15T06:11:24.324Z,95710.65
2019-03-15T06:13:50.861Z,95707.06
2019-03-15T06:16:17.398Z,95724.03
2019-03-15T06:18:44.137Z,95714.81
2019-03-15T06:21:10.879Z,95713.32
2019-03-15T06:23:37.312Z,95713.87
2019-03-15T06:26:03.953Z,95724.03
2019-03-15T06:28:30.383Z,95728.66
2019-03-15T06:30:57.021Z,95731.84
2019-03-15T06:33:23.763Z,95732.95
2019-03-15T06:35:50.304Z,95739.25
2019-03-15T06:38:16.941Z,95741.52
2019-03-15T06:40:43.475Z,95743.36
2019-03-15T06:43:12.993Z,95745.44
2019-03-15T06:45:41.580Z,95755.89
2019-03-15T06:48:06.768Z,95766.11
2019-03-15T06:50:33.205Z,95771.22
2019-03-15T06:52:59.635Z,95766.42
2019-03-15T06:55:26.175Z,95772.85
2019-03-15T06:57:52.603Z,95774.19
2019-03-15T07:00:19.042Z,95774.27
2019-03-15T07:02:46.060Z,95776.30
2019-03-15T07:05:13.133Z,95781.33
2019-03-15T07:07:39.570Z,95779.81
2019-03-15T07:10:08.388Z,95788.63
2019-03-15T07:12:34.893Z,95791.25
2019-03-15T07:15:01.431Z,95795.33
2019-03-15T07:17:28.067Z,95803.45
2019-03-15T07:19:54.798Z,95808.67
2019-03-15T07:22:21.244Z,95805.38
2019-03-15T07:24:47.775Z,95810.73
2019-03-15T07:27:14.210Z,95816.13
2019-03-15T07:29:42.487Z,95812.84
2019-03-15T07:32:08.921Z,95823.58
2019-03-15T07:34:35.455Z,95819.89
2019-03-15T07:37:01.888Z,95819.62
2019-03-15T07:39:28.424Z,95820.81
2019-03-15T07:41:54.859Z,95830.84
2019-03-15T07:44:21.293Z,95830.53
2019-03-15T07:46:50.908Z,95822.38
2019-03-15T07:49:16.431Z,95827.66
2019-03-15T07:51:42.947Z,95835.26
2019-03-15T07:54:09.487Z,95831.79
2019-03-15T07:56:36.019Z,95842.39
2019-03-15T07:59:02.656Z,95824.99
2019-03-15T08:01:29.094Z,95830.35
2019-03-15T08:03:55.527Z,95835.81
2019-03-15T08:06:34.179Z,95831.02
2019-03-15T08:08:50.439Z,95832.27
2019-03-15T08:11:16.978Z,95836.25
2019-03-15T08:13:43.511Z,95827.67
2019-03-15T08:16:10.047Z,95845.86
2019-03-15T08:18:36.487Z,95852.54
2019-03-15T08:21:03.428Z,95852.64
2019-03-15T08:23:29.966Z,95842.59
2019-03-15T08:25:56.503Z,95837.04
2019-03-15T08:28:22.935Z,95849.38
2019-03-15T08:30:49.368Z,95852.68
2019-03-15T08:33:15.803Z,95865.36
2019-03-15T08:35:42.335Z,95857.05
2019-03-15T08:38:08.769Z,95857.32
2019-03-15T08:40:35.203Z,95870.87
2019-03-15T08:43:02.865Z,95875.80
2019-03-15T08:45:29.708Z,95875.55
2019-03-15T08:47:56.141Z,95862.37
2019-03-15T08:50:24.573Z,95866.30
2019-03-15T08:52:53.871Z,95866.47
2019-03-15T08:55:19.434Z,95861.67
2019-03-15T08:57:45.871Z,95875.41
2019-03-15T09:00:17.490Z,95867.52
2019-03-15T09:02:44.061Z,95877.71
2019-03-15T09:05:12.854Z,95877.27
2019-03-15T09:07:39.282Z,95881.89
2019-03-15T09:10:21.938Z,95879.81
2019-03-15T09:12:39.214Z,95881.42
2019-03-15T09:15:07.777Z,95870.77
2019-03-15T09:17:34.233Z,95873.15
2019-03-15T09:20:00.776Z,95881.42
2019-03-15T09:22:27.319Z,95881.91
2019-03-15T09:24:53.840Z,95870.98
2019-03-15T09:27:20.273Z,95876.95
2019-03-15T09:29:46.707Z,95873.45
2019-03-15T09:32:13.244Z,95864.97
2019-03-15T09:34:39.797Z,95865.58
2019-03-15T09:37:06.319Z,95862.11
2019-03-15T09:39:32.750Z,95871.30
2019-03-15T09:41:59.284Z,95873.84
2019-03-15T09:44:25.722Z,95876.50
2019-03-15T09:46:52.151Z,95880.88
2019-03-15T09:49:18.585Z,95882.12
2019-03-15T09:51:45.020Z,95883.27
2019-03-15T09:54:11.555Z,95875.74
2019-03-15T09:56:38.093Z,95874.70
2019-03-15T09:59:04.530Z,95877.53
2019-03-15T10:01:35.099Z,95871.58
2019-03-15T10:03:59.339Z,95880.88
2019-03-15T10:06:28.846Z,95885.05
2019-03-15T10:08:55.385Z,95878.39
2019-03-15T10:11:22.124Z,95879.17
2019-03-15T10:13:48.673Z,95876.94
2019-03-15T10:16:15.192Z,95887.42
2019-03-15T10:18:41.628Z,95886.89
2019-03-15T10:21:09.427Z,95881.52
2019-03-15T10:23:36.132Z,95878.52
2019-03-15T10:26:02.667Z,95886.13
2019-03-15T10:28:29.103Z,95896.61
2019-03-15T10:30:55.533Z,95896.91
2019-03-15T10:33:22.071Z,95888.02
2019-03-15T10:35:48.608Z,95894.20
2019-03-15T10:38:16.759Z,95888.89
2019-03-15T10:40:43.423Z,95900.83
2019-03-15T10:43:09.856Z,95900.88
2019-03-15T10:45:36.499Z,95890.33
2019-03-15T10:48:03.130Z,95889.56
2019-03-15T10:50:29.563Z,95889.14
2019-03-15T10:52:56.001Z,95895.23
2019-03-15T10:55:22.531Z,95886.66
2019-03-15T10:57:49.130Z,95881.53
2019-03-15T11:00:17.038Z,95878.50
2019-03-15T11:02:43.472Z,95883.52
2019-03-15T11:05:10.113Z,95885.92
2019-03-15T11:07:36.550Z,95897.77
2019-03-15T11:10:04.102Z,95893.75
2019-03-15T11:12:30.638Z,95888.70
2019-03-15T11:14:57.381Z,95889.81
2019-03-15T11:17:23.914Z,95896.20
2019-03-15T11:19:50.335Z,95891.45
2019-03-15T11:22:16.783Z,95895.52
2019-03-15T11:24:43.941Z,95896.07
2019-03-15T11:27:10.570Z,95886.16
2019-03-15T11:29:37.106Z,95894.28
2019-03-15T11:32:03.642Z,95890.47
2019-03-15T11:34:30.074Z,95888.91
2019-03-15T11:36:58.450Z,95888.70
2019-03-15T11:39:24.889Z,95889.74
2019-03-15T11:41:51.444Z,95886.22
2019-03-15T11:44:17.858Z,95888.17
2019-03-15T11:46:44.396Z,95888.86
2019-03-15T11:49:10.954Z,95886.29
2019-03-15T11:51:37.472Z,95895.64
2019-03-15T11:54:04.017Z,95895.25
2019-03-15T11:56:30.541Z,95895.53
2019-03-15T11:58:57.380Z,95893.34
2019-03-15T12:01:23.813Z,95883.92
2019-03-15T12:03:53.304Z,95883.82
2019-03-15T12:06:18.732Z,95879.28
2019-03-15T12:08:45.264Z,95865.68
2019-03-15T12:11:11.697Z,95869.34
2019-03-15T12:13:40.177Z,95861.05
2019-03-15T12:16:06.922Z,95868.08
2019-03-15T12:18:33.456Z,95861.25
2019-03-15T12:21:02.859Z,95860.17
2019-03-15T12:23:29.288Z,95851.02
2019-03-15T12:25:55.829Z,95839.66
2019-03-15T12:28:22.262Z,95845.41
2019-03-15T12:30:48.801Z,95831.59
2019-03-15T12:33:15.337Z,95833.53
2019-03-15T12:35:41.875Z,95825.59
2019-03-15T12:38:08.410Z,95829.30
2019-03-15T12:40:34.941Z,95834.23
2019-03-15T12:43:02.899Z,95834.13
2019-03-15T12:45:29.567Z,95840.30
2019-03-15T12:47:55.984Z,95833.47
2019-03-15T12:50:22.523Z,95836.00
2019-03-15T12:52:49.158Z,95836.00
2019-03-15T12:55:15.693Z,95824.27
2019-03-15T12:57:42.236Z,95824.64
2019-03-15T13:00:14.090Z,95824.64
2019-03-15T13:02:40.638Z,95822.14
2019-03-15T13:05:07.469Z,95815.26
2019-03-15T13:07:34.005Z,95815.26
2019-03-15T13:10:00.540Z,95820.01
2019-03-15T13:12:27.178Z,95813.33
2019-03-15T13:14:53.817Z,95820.04
2019-03-15T13:17:20.357Z,95804.47
2019-03-15T13:19:55.007Z,95806.17
2019-03-15T13:22:15.170Z,95800.16
2019-03-15T13:24:41.704Z,95796.32
2019-03-15T13:27:08.245Z,95799.99
2019-03-15T13:29:34.672Z,95803.59
2019-03-15T13:32:01.105Z,95807.34
2019-03-15T13:34:27.643Z,95806.67
2019-03-15T13:36:54.176Z,95810.98
2019-03-15T13:39:20.610Z,95803.98
2019-03-15T13:41:47.148Z,95803.66
2019-03-15T13:44:13.579Z,95803.66
2019-03-15T13:46:40.122Z,95803.47
2019-03-15T13:49:06.551Z,95798.68
2019-03-15T13:51:33.085Z,95798.76
2019-03-15T13:53:59.621Z,95800.42
2019-03-15T13:56:26.157Z,95798.36
2019-03-15T13:58:57.484Z,95786.79
2019-03-15T14:01:21.083Z,95786.79
2019-03-15T14:03:47.505Z,95791.11
2019-03-15T14:06:14.251Z,95790.11
2019-03-15T14:08:40.986Z,95782.69
2019-03-15T14:11:07.523Z,95794.95
2019-03-15T14:13:34.058Z,95798.95
2019-03-15T14:16:01.714Z,95797.67
2019-03-15T14:18:28.669Z,95800.38
2019-03-15T14:20:55.204Z,95808.70
2019-03-15T14:23:21.663Z,95817.33
2019-03-15T14:25:48.179Z,95810.70
2019-03-15T14:28:14.707Z,95811.22
2019-03-15T14:30:41.244Z,95812.82
2019-03-15T14:33:07.685Z,95827.43
2019-03-15T14:35:34.213Z,95830.45
2019-03-15T14:38:00.749Z,95835.62
2019-03-15T14:40:27.238Z,95835.62
2019-03-15T14:42:53.731Z,95826.57
2019-03-15T14:45:20.378Z,95816.70
2019-03-15T14:47:46.895Z,95826.77
2019-03-15T14:50:13.845Z,95826.77
2019-03-15T14:52:40.272Z,95818.95
2019-03-15T14:55:12.545Z,95821.89
2019-03-15T14:57:51.359Z,95829.09
2019-03-15T15:00:12.679Z,95819.77
2019-03-15T15:02:39.115Z,95819.30
2019-03-15T15:05:07.773Z,95816.47
2019-03-15T15:07:34.439Z,95816.47
2019-03-15T15:10:00.880Z,95815.00
2019-03-15T15:12:27.513Z,95819.03
2019-03-15T15:14:54.148Z,95808.53
2019-03-15T15:17:20.684Z,95807.00
2019-03-15T15:19:47.219Z,95808.05
2019-03-15T15:22:13.656Z,95800.39
2019-03-15T15:24:40.190Z,95807.80
2019-03-15T15:27:06.728Z,95788.62
2019-03-15T15:29:33.266Z,95788.62
2019-03-15T15:31:59.802Z,95791.36
2019-03-15T15:34:26.336Z,95774.53
2019-03-15T15:36:52.871Z,95774.53
2019-03-15T15:39:21.062Z,95785.84
2019-03-15T15:41:47.892Z,95789.33
2019-03-15T15:44:14.478Z,95794.25
2019-03-15T15:46:41.064Z,95791.44
2019-03-15T15:49:08.824Z,95796.75
2019-03-15T15:51:35.361Z,95801.52
2019-03-15T15:54:01.898Z,95802.49
2019-03-15T15:56:28.432Z,95801.81
2019-03-15T15:58:54.869Z,95807.40
2019-03-15T16:01:21.402Z,95808.41
2019-03-15T16:03:47.837Z,95794.55
2019-03-15T16:06:14.372Z,95790.95
2019-03-15T16:08:42.650Z,95785.72
2019-03-15T16:11:09.186Z,95786.05
2019-03-15T16:13:36.132Z,95780.83
2019-03-15T16:16:02.774Z,95780.03
2019-03-15T16:18:29.283Z,95780.03
2019-03-15T16:20:55.946Z,95782.84
2019-03-15T16:23:22.482Z,95792.36
2019-03-15T16:25:49.020Z,95789.77
2019-03-15T16:28:15.557Z,95794.95
2019-03-15T16:30:42.296Z,95793.05
2019-03-15T16:33:08.832Z,95785.65
2019-03-15T16:35:36.702Z,95790.94
2019-03-15T16:38:03.243Z,95798.18
2019-03-15T16:40:29.771Z,95808.69
2019-03-15T16:42:58.069Z,95806.73
2019-03-15T16:45:29.026Z,95807.14
2019-03-15T16:47:55.456Z,95804.67
2019-03-15T16:50:21.966Z,95804.67
2019-03-15T16:52:48.504Z,95812.35
2019-03-15T16:55:15.027Z,95812.35
2019-03-15T16:57:41.564Z,95817.77
2019-03-15T17:00:11.167Z,95824.86
2019-03-15T17:02:37.702Z,95833.06
2019-03-15T17:05:06.076Z,95828.58
2019-03-15T17:07:32.519Z,95842.67
2019-03-15T17:09:59.052Z,95845.43
2019-03-15T17:12:25.484Z,95846.27
2019-03-15T17:14:52.432Z,95841.78
2019-03-15T17:17:18.965Z,95841.72
2019-03-15T17:19:45.400Z,95841.72
2019-03-15T17:22:11.937Z,95853.60
2019-03-15T17:24:38.622Z,95856.20
2019-03-15T17:27:05.113Z,95867.91
2019-03-15T17:29:31.549Z,95866.16
2019-03-15T17:31:57.978Z,95873.57
2019-03-15T17:34:24.410Z,95879.02
2019-03-15T17:36:50.844Z,95878.11
2019-03-15T17:39:17.280Z,95881.10
2019-03-15T17:41:43.711Z,95885.31
2019-03-15T17:44:10.246Z,95893.34
2019-03-15T17:46:36.785Z,95893.34
2019-03-15T17:49:03.215Z,95897.55
2019-03-15T17:51:29.650Z,95899.46
2019-03-15T17:53:56.085Z,95900.16
2019-03-15T17:56:22.618Z,95902.42
2019-03-15T17:58:49.054Z,95903.92
2019-03-15T18:01:15.488Z,95915.25
2019-03-15T18:03:41.950Z,95907.44
2019-03-15T18:06:08.865Z,95907.52
2019-03-15T18:08:35.401Z,95925.00
2019-03-15T18:11:01.835Z,95928.27
2019-03-15T18:13:28.687Z,95929.27
2019-03-15T18:15:55.319Z,95924.67
2019-03-15T18:18:21.750Z,95925.45
2019-03-15T18:20:48.183Z,95930.41
2019-03-15T18:23:14.719Z,95934.50
2019-03-15T18:25:41.259Z,95940.59
2019-03-15T18:28:07.688Z,95949.59
2019-03-15T18:30:34.224Z,95947.19
2019-03-15T18:33:00.657Z,95946.80
2019-03-15T18:35:33.517Z,95949.79
2019-03-15T18:37:55.572Z,95952.31
2019-03-15T18:40:25.388Z,95961.73
2019-03-15T18:42:51.922Z,95961.73
2019-03-15T18:45:18.560Z,95966.02
2019-03-15T18:47:45.301Z,95967.47
2019-03-15T18:50:22.998Z,95961.81
2019-03-15T18:52:49.432Z,95961.81
2019-03-15T18:55:16.072Z,95956.98
2019-03-15T18:57:42.506Z,95959.72
2019-03-15T19:00:19.592Z,95957.07
2019-03-15T19:02:46.022Z,95946.67
2019-03-15T19:05:12.674Z,95953.21
2019-03-15T19:07:39.194Z,95950.69
2019-03-15T19:10:07.919Z,95948.31
2019-03-15T19:12:34.416Z,95946.09
2019-03-15T19:15:01.055Z,95950.69
2019-03-15T19:17:27.488Z,95948.84
2019-03-15T19:19:54.126Z,95948.92
2019-03-15T19:22:20.567Z,95962.02
2019-03-15T19:24:47.311Z,95961.25
2019-03-15T19:27:13.843Z,95958.37
2019-03-15T19:29:52.723Z,95958.37
2019-03-15T19:32:09.777Z,95973.30
2019-03-15T19:34:38.044Z,95977.25
2019-03-15T19:37:06.329Z,95979.55
2019-03-15T19:39:34.606Z,95979.63
2019-03-15T19:42:02.379Z,95990.38
2019-03-15T19:44:28.906Z,95991.06
2019-03-15T19:46:55.442Z,95993.19
2019-03-15T19:49:21.876Z,95998.02
2019-03-15T19:51:48.416Z,95994.47
2019-03-15T19:54:14.948Z,95997.08
2019-03-15T19:56:41.484Z,96000.02
2019-03-15T19:59:07.916Z,96003.28
2019-03-15T20:01:34.351Z,96000.52
2019-03-15T20:04:00.890Z,96008.48
2019-03-15T20:06:27.528Z,96008.48
2019-03-15T20:08:53.958Z,96007.79
2019-03-15T20:11:20.393Z,96013.56
2019-03-15T20:13:47.187Z,96014.72
2019-03-15T20:16:13.771Z,96008.59
2019-03-15T20:18:40.307Z,96014.67
2019-03-15T20:21:06.844Z,96013.16
2019-03-15T20:23:33.277Z,96007.57
2019-03-15T20:25:59.915Z,96017.52
2019-03-15T20:28:26.758Z,96016.14
2019-03-15T20:30:53.193Z,96016.28
2019-03-15T20:33:19.738Z,96018.74
2019-03-15T20:35:48.311Z,96023.14
2019-03-15T20:38:16.636Z,96023.27
2019-03-15T20:40:43.124Z,96025.27
2019-03-15T20:43:09.559Z,96024.58
2019-03-15T20:45:36.297Z,96021.98
2019-03-15T20:48:02.735Z,96024.34
2019-03-15T20:50:29.254Z,96023.58
2019-03-15T20:53:07.665Z,96022.73
2019-03-15T20:55:28.405Z,96025.08
2019-03-15T20:57:54.002Z,96029.59
2019-03-15T21:00:34.313Z,96025.81
2019-03-15T21:02:49.734Z,96031.20
2019-03-15T21:05:16.274Z,96029.64
2019-03-15T21:07:43.696Z,96029.64
2019-03-15T21:10:14.254Z,96023.82
2019-03-15T21:12:40.794Z,96020.94
2019-03-15T21:15:10.192Z,96023.89
2019-03-15T21:17:36.727Z,96024.09
2019-03-15T21:20:06.502Z,96018.92
2019-03-15T21:22:34.310Z,96018.51
2019-03-15T21:25:00.840Z,96016.47
2019-03-15T21:27:27.379Z,96023.72
2019-03-15T21:29:53.810Z,96020.37
2019-03-15T21:32:20.409Z,96026.36
2019-03-15T21:34:46.985Z,96028.79
2019-03-15T21:37:13.418Z,96037.15
2019-03-15T21:39:39.853Z,96039.14
2019-03-15T21:42:06.285Z,96044.64
2019-03-15T21:44:32.830Z,96048.61
2019-03-15T21:46:59.262Z,96043.25
2019-03-15T21:49:25.796Z,96043.11
2019-03-15T21:51:52.224Z,96039.96
2019-03-15T21:54:18.759Z,96044.71
2019-03-15T21:56:45.400Z,96046.66
2019-03-15T21:59:11.834Z,96050.98
2019-03-15T22:01:38.268Z,96048.55
2019-03-15T22:04:04.701Z,96048.12
2019-03-15T22:06:31.235Z,96049.35
2019-03-15T22:08:57.668Z,96051.52
2019-03-15T22:11:24.204Z,96045.39
2019-03-15T22:13:50.740Z,96049.22
2019-03-15T22:16:17.481Z,96044.52
2019-03-15T22:18:44.020Z,96047.80
2019-03-15T22:21:10.576Z,96042.78
2019-03-15T22:23:37.089Z,96040.59
2019-03-15T22:26:03.832Z,96037.16
2019-03-15T22:28:30.365Z,96040.83
2019-03-15T22:30:56.802Z,96042.11
2019-03-15T22:33:23.232Z,96039.26
2019-03-15T22:35:49.870Z,96040.75
2019-03-15T22:38:26.132Z,96035.73
2019-03-15T22:40:44.967Z,96045.70
2019-03-15T22:43:11.425Z,96045.54
2019-03-15T22:45:37.960Z,96044.66
2019-03-15T22:48:04.496Z,96045.17
2019-03-15T22:50:52.851Z,96048.25
2019-03-15T22:53:20.812Z,96049.98
2019-03-15T22:55:47.759Z,96051.89
2019-03-15T22:58:14.301Z,96059.44
2019-03-15T23:00:41.240Z,96058.11
2019-03-15T23:03:07.676Z,96058.96
2019-03-15T23:05:34.212Z,96055.31
2019-03-15T23:08:00.744Z,96058.17
2019-03-15T23:10:27.182Z,96056.47
2019-03-15T23:12:53.683Z,96054.83
2019-03-15T23:15:20.250Z,96054.21
2019-03-15T23:17:46.683Z,96051.22
2019-03-15T23:20:13.121Z,96047.64
2019-03-15T23:22:39.554Z,96050.90
2019-03-15T23:25:07.112Z,96042.57
2019-03-15T23:27:33.662Z,96043.53
2019-03-15T23:30:00.385Z,96045.64
2019-03-15T23:32:27.129Z,96041.12
2019-03-15T23:34:53.767Z,96035.30
2019-03-15T23:37:20.200Z,96030.53
2019-03-15T23:39:46.638Z,96032.80
2019-03-15T23:42:13.070Z,96030.06
2019-03-15T23:44:39.606Z,96024.92
2019-03-15T23:47:06.038Z,96024.24
2019-03-15T23:49:33.904Z,96024.06
2019-03-15T23:52:00.646Z,96019.91
2019-03-15T23:54:27.183Z,96020.72
2019-03-15T23:56:53.615Z,96015.14
2019-03-15T23:59:20.152Z,96010.94
